Terminal Aerodrome Forecast
Issued by NWS

Home | Current Version | Previous Version | Text Only | Print | Product List | Glossary On
Versions: 1 2 3 4 5 6 7 8 9 10 11 12 13 14 15 16 17 18 19 20 21
356
FTUS42 KTBW 200926 CCA
TAFLAL
TAF COR
KLAL 200926Z 2006/2106 00000KT 6SM BR SKC
      TEMPO 2010/2014 1SM BR SCT005
     FM201400 10007KT P6SM FEW015
     FM202200 09006KT P6SM SCT050
     FM210400 09005KT P6SM FEW045 SCT250
      AMD NOT SKED TIL 201100=

USA.gov is the U.S. government's official web portal to all federal, state and local government web resources and services.